createdAt,value
2023-04-18T00:01:21.700Z,82.05
2023-04-18T00:04:25.399Z,82.56
2023-04-18T00:07:28.047Z,82.47
2023-04-18T00:10:30.967Z,82.53
2023-04-18T00:13:33.771Z,82.15
2023-04-18T00:16:38.195Z,81.83
2023-04-18T00:19:43.373Z,82.29
2023-04-18T00:22:55.089Z,82.45
2023-04-18T00:25:57.750Z,81.94
2023-04-18T00:29:00.312Z,81.92
2023-04-18T00:32:02.845Z,81.93
2023-04-18T00:35:06.900Z,81.66
2023-04-18T00:38:09.451Z,81.67
2023-04-18T00:41:12.295Z,81.47
2023-04-18T00:44:15.097Z,82.00
2023-04-18T00:47:17.752Z,81.91
2023-04-18T00:50:21.174Z,82.17
2023-04-18T00:53:24.070Z,81.86
2023-04-18T00:56:26.738Z,82.20
2023-04-18T00:59:29.414Z,82.22
2023-04-18T01:02:34.018Z,81.88
2023-04-18T01:05:36.747Z,82.60
2023-04-18T01:08:42.195Z,82.49
2023-04-18T01:11:44.697Z,81.82
2023-04-18T01:14:47.696Z,82.19
2023-04-18T01:17:52.469Z,82.42
2023-04-18T01:20:57.137Z,82.14
2023-04-18T01:24:17.185Z,82.09
2023-04-18T01:27:20.033Z,82.09
2023-04-18T01:30:22.502Z,81.06
2023-04-18T01:33:25.019Z,80.68
2023-04-18T01:36:27.688Z,81.14
2023-04-18T01:39:30.169Z,81.17
2023-04-18T01:42:33.056Z,81.73
2023-04-18T01:45:35.482Z,81.71
2023-04-18T01:48:38.265Z,81.78
2023-04-18T01:51:41.019Z,82.06
2023-04-18T01:54:43.502Z,82.12
2023-04-18T01:57:46.248Z,82.08
2023-04-18T02:00:51.561Z,81.58
2023-04-18T02:03:54.377Z,81.41
2023-04-18T02:06:57.227Z,81.57
2023-04-18T02:10:00.016Z,81.09
2023-04-18T02:13:02.621Z,81.00
2023-04-18T02:16:06.177Z,80.39
2023-04-18T02:19:09.197Z,80.92
2023-04-18T02:22:11.755Z,80.63
2023-04-18T02:25:14.249Z,80.45
2023-04-18T02:28:16.747Z,80.83
2023-04-18T02:31:19.367Z,80.85
2023-04-18T02:34:21.912Z,80.51
2023-04-18T02:37:24.335Z,80.54
2023-04-18T02:40:26.916Z,80.20
2023-04-18T02:43:29.557Z,80.15
2023-04-18T02:46:32.736Z,80.01
2023-04-18T02:49:36.018Z,79.96
2023-04-18T02:52:38.551Z,79.69
2023-04-18T02:55:43.105Z,79.27
2023-04-18T02:58:45.762Z,79.31
2023-04-18T03:02:14.885Z,79.41
2023-04-18T03:05:24.778Z,79.22
2023-04-18T03:08:30.775Z,79.24
2023-04-18T03:11:33.654Z,79.48
2023-04-18T03:14:36.325Z,79.51
2023-04-18T03:17:39.465Z,79.46
2023-04-18T03:20:42.345Z,79.30
2023-04-18T03:23:45.005Z,79.22
2023-04-18T03:26:47.709Z,79.44
2023-04-18T03:29:51.966Z,79.05
2023-04-18T03:32:56.209Z,79.11
2023-04-18T03:35:59.401Z,78.85
2023-04-18T03:39:02.588Z,79.14
2023-04-18T03:42:05.824Z,79.26
2023-04-18T03:45:09.973Z,79.09
2023-04-18T03:48:13.087Z,79.06
2023-04-18T03:51:18.980Z,79.09
2023-04-18T03:54:22.682Z,78.71
2023-04-18T03:57:25.325Z,78.70
2023-04-18T04:00:28.020Z,78.74
2023-04-18T04:03:37.156Z,78.78
2023-04-18T04:06:40.622Z,78.59
2023-04-18T04:09:43.239Z,78.99
2023-04-18T04:12:46.731Z,78.55
2023-04-18T04:15:49.730Z,78.55
2023-04-18T04:18:52.382Z,78.97
2023-04-18T04:21:58.952Z,79.11
2023-04-18T04:25:02.776Z,78.86
2023-04-18T04:28:11.695Z,78.98
2023-04-18T04:31:24.265Z,78.44
2023-04-18T04:34:26.947Z,78.36
2023-04-18T04:37:29.887Z,78.41
2023-04-18T04:40:47.849Z,78.29
2023-04-18T04:43:51.327Z,78.31
2023-04-18T04:46:58.024Z,77.41
2023-04-18T04:50:07.813Z,78.16
2023-04-18T04:53:11.803Z,77.96
2023-04-18T04:56:14.798Z,78.00
2023-04-18T04:59:18.081Z,77.30
2023-04-18T05:02:23.404Z,77.30
2023-04-18T05:05:26.105Z,77.12
2023-04-18T05:08:28.972Z,76.54
2023-04-18T05:11:31.493Z,76.69
2023-04-18T05:14:34.072Z,76.70
2023-04-18T05:17:36.650Z,76.78
2023-04-18T05:20:39.188Z,76.70
2023-04-18T05:23:41.727Z,76.15
2023-04-18T05:26:44.342Z,76.07
2023-04-18T05:29:47.964Z,76.13
2023-04-18T05:32:50.919Z,76.30
2023-04-18T05:35:53.852Z,76.06
2023-04-18T05:38:56.507Z,76.21
2023-04-18T05:41:59.402Z,76.25
2023-04-18T05:45:02.221Z,75.77
2023-04-18T05:48:05.615Z,75.02
2023-04-18T05:51:09.101Z,74.57
2023-04-18T05:54:13.393Z,74.77
2023-04-18T05:57:16.304Z,74.65
2023-04-18T06:00:20.183Z,75.08
2023-04-18T06:03:22.976Z,74.13
2023-04-18T06:06:26.202Z,73.97
2023-04-18T06:09:28.722Z,73.72
2023-04-18T06:12:31.270Z,73.77
2023-04-18T06:15:34.913Z,73.37
2023-04-18T06:18:37.564Z,72.91
2023-04-18T06:21:42.213Z,72.60
2023-04-18T06:24:44.961Z,72.64
2023-04-18T06:27:47.709Z,71.91
2023-04-18T06:30:50.729Z,71.35
2023-04-18T06:33:53.295Z,71.09
2023-04-18T06:36:56.114Z,69.63
2023-04-18T06:39:58.772Z,69.55
2023-04-18T06:43:01.455Z,67.89
2023-04-18T06:46:07.176Z,67.92
2023-04-18T06:49:10.051Z,68.08
2023-04-18T06:52:12.837Z,67.87
2023-04-18T06:55:15.775Z,67.85
2023-04-18T06:58:18.549Z,67.68
2023-04-18T07:01:21.180Z,67.50
2023-04-18T07:04:23.891Z,67.13
2023-04-18T07:07:26.665Z,67.21
2023-04-18T07:10:29.978Z,66.79
2023-04-18T07:13:32.977Z,65.66
2023-04-18T07:16:35.724Z,65.65
2023-04-18T07:19:41.859Z,66.37
2023-04-18T07:22:44.483Z,65.78
2023-04-18T07:25:47.389Z,65.57
2023-04-18T07:28:50.003Z,64.94
2023-04-18T07:31:52.570Z,64.88
2023-04-18T07:34:57.502Z,65.12
2023-04-18T07:38:00.036Z,64.36
2023-04-18T07:41:03.418Z,64.46
2023-04-18T07:44:05.970Z,63.61
2023-04-18T07:47:11.507Z,63.10
2023-04-18T07:50:14.067Z,62.04
2023-04-18T07:53:17.093Z,62.33
2023-04-18T07:56:19.728Z,60.59
2023-04-18T07:59:22.546Z,61.46
2023-04-18T08:02:25.702Z,59.87
2023-04-18T08:05:29.518Z,61.13
2023-04-18T08:08:32.082Z,61.63
2023-04-18T08:11:35.292Z,61.74
2023-04-18T08:14:38.146Z,60.61
2023-04-18T08:17:42.755Z,60.02
2023-04-18T08:20:45.795Z,60.01
2023-04-18T08:23:48.670Z,58.60
2023-04-18T08:26:51.111Z,58.12
2023-04-18T08:29:55.428Z,58.22
2023-04-18T08:32:59.080Z,58.57
2023-04-18T08:36:01.709Z,57.25
2023-04-18T08:39:04.632Z,58.09
2023-04-18T08:42:10.411Z,57.73
2023-04-18T08:45:16.542Z,56.78
2023-04-18T08:48:19.172Z,56.22
2023-04-18T08:51:21.790Z,55.49
2023-04-18T08:54:25.587Z,56.00
2023-04-18T08:57:31.082Z,55.30
2023-04-18T09:00:36.602Z,56.53
2023-04-18T09:03:40.615Z,55.95
2023-04-18T09:06:54.970Z,52.58
2023-04-18T09:09:57.767Z,54.42
2023-04-18T09:13:03.538Z,55.76
2023-04-18T09:16:07.260Z,48.33
2023-04-18T09:19:18.729Z,47.86
2023-04-18T09:22:21.986Z,47.86
2023-04-18T09:25:29.328Z,48.48
2023-04-18T09:28:33.711Z,47.30
2023-04-18T09:32:00.126Z,47.35
2023-04-18T09:35:05.563Z,46.35
2023-04-18T09:38:08.282Z,47.86
2023-04-18T09:41:13.211Z,47.85
2023-04-18T09:44:17.717Z,48.56
2023-04-18T09:47:20.611Z,48.62
2023-04-18T09:50:23.303Z,48.64
2023-04-18T09:53:26.855Z,44.91
2023-04-18T09:56:32.776Z,43.16
2023-04-18T09:59:52.051Z,43.70
2023-04-18T10:03:10.056Z,43.46
2023-04-18T10:06:16.475Z,45.83
2023-04-18T10:09:20.939Z,45.72
2023-04-18T10:12:24.363Z,44.89
2023-04-18T10:15:31.982Z,43.79
2023-04-18T10:18:36.746Z,42.52
2023-04-18T10:21:57.465Z,43.66
2023-04-18T10:25:00.277Z,43.49
2023-04-18T10:28:04.497Z,44.80
2023-04-18T10:31:07.907Z,43.54
2023-04-18T10:34:17.513Z,43.88
2023-04-18T10:37:20.358Z,42.94
2023-04-18T10:40:34.326Z,42.54
2023-04-18T10:44:15.800Z,42.40
2023-04-18T10:47:20.203Z,42.04
2023-04-18T10:50:24.395Z,42.29
2023-04-18T10:53:31.522Z,43.77
2023-04-18T10:56:34.256Z,43.09
2023-04-18T10:59:42.437Z,42.93
2023-04-18T11:02:50.269Z,42.14
2023-04-18T11:06:02.002Z,42.22
2023-04-18T11:09:14.616Z,42.41
2023-04-18T11:12:17.240Z,42.79
2023-04-18T11:15:21.658Z,44.09
2023-04-18T11:18:24.607Z,43.18
2023-04-18T11:21:31.708Z,44.68
2023-04-18T11:24:34.416Z,43.58
2023-04-18T11:27:37.094Z,43.52
2023-04-18T11:30:41.211Z,42.89
2023-04-18T11:33:47.344Z,43.00
2023-04-18T11:36:51.406Z,42.29
2023-04-18T11:39:54.163Z,42.39
2023-04-18T11:42:56.902Z,41.42
2023-04-18T11:46:00.455Z,42.01
2023-04-18T11:49:02.992Z,40.96
2023-04-18T11:52:13.174Z,37.75
2023-04-18T11:55:18.555Z,35.89
2023-04-18T11:58:30.687Z,34.75
2023-04-18T12:01:33.463Z,35.31
2023-04-18T12:04:53.345Z,37.57
2023-04-18T12:07:56.768Z,35.74
2023-04-18T12:10:59.344Z,35.85
2023-04-18T12:14:03.552Z,37.11
2023-04-18T12:17:06.934Z,36.12
2023-04-18T12:20:10.763Z,37.89
2023-04-18T12:23:34.451Z,38.65
2023-04-18T12:26:45.810Z,36.21
2023-04-18T12:29:48.690Z,35.25
2023-04-18T12:32:54.496Z,37.78
2023-04-18T12:35:57.488Z,35.93
2023-04-18T12:39:00.185Z,31.78
2023-04-18T12:42:02.756Z,31.18
2023-04-18T12:45:07.818Z,28.76
2023-04-18T12:48:10.648Z,29.94
2023-04-18T12:51:13.272Z,27.48
2023-04-18T12:54:16.091Z,27.29
2023-04-18T12:57:19.029Z,27.93
2023-04-18T13:00:26.837Z,25.12
2023-04-18T13:03:29.716Z,24.72
2023-04-18T13:06:32.333Z,27.30
2023-04-18T13:09:34.986Z,27.00
2023-04-18T13:12:38.401Z,26.08
2023-04-18T13:15:41.348Z,25.43
2023-04-18T13:18:44.310Z,24.81
2023-04-18T13:21:48.436Z,24.76
2023-04-18T13:24:53.151Z,24.28
2023-04-18T13:27:56.579Z,24.51
2023-04-18T13:30:59.781Z,23.48
2023-04-18T13:34:02.344Z,24.08
2023-04-18T13:37:04.994Z,22.72
2023-04-18T13:40:08.555Z,23.05
2023-04-18T13:43:13.065Z,21.85
2023-04-18T13:46:15.665Z,23.55
2023-04-18T13:49:18.747Z,22.17
2023-04-18T13:52:21.270Z,20.39
2023-04-18T13:55:25.218Z,21.01
2023-04-18T13:58:27.794Z,20.25
2023-04-18T14:01:30.496Z,21.53
2023-04-18T14:04:33.634Z,21.72
2023-04-18T14:07:37.325Z,23.97
2023-04-18T14:10:39.958Z,25.09
2023-04-18T14:13:42.578Z,24.02
2023-04-18T14:16:45.230Z,21.61
2023-04-18T14:19:48.914Z,21.10
2023-04-18T14:22:53.120Z,20.46
2023-04-18T14:25:56.010Z,21.65
2023-04-18T14:28:58.724Z,21.42
2023-04-18T14:32:01.488Z,21.17
2023-04-18T14:35:06.092Z,20.30
2023-04-18T14:38:08.604Z,20.45
2023-04-18T14:41:11.227Z,19.95
2023-04-18T14:44:13.901Z,20.63
2023-04-18T14:47:16.491Z,21.78
2023-04-18T14:50:19.190Z,23.09
2023-04-18T14:53:21.866Z,22.60
2023-04-18T14:56:24.367Z,21.74
2023-04-18T14:59:28.820Z,21.20
2023-04-18T15:02:31.680Z,21.54
2023-04-18T15:05:35.010Z,19.87
2023-04-18T15:08:40.523Z,21.31
2023-04-18T15:11:43.036Z,22.29
2023-04-18T15:14:45.557Z,23.97
2023-04-18T15:17:48.096Z,24.22
2023-04-18T15:20:51.785Z,23.74
2023-04-18T15:23:54.349Z,23.57
2023-04-18T15:26:58.760Z,25.76
2023-04-18T15:30:02.414Z,24.71
2023-04-18T15:33:06.319Z,23.99
2023-04-18T15:36:10.112Z,23.98
2023-04-18T15:39:13.294Z,22.16
2023-04-18T15:42:16.031Z,22.17
2023-04-18T15:45:18.595Z,21.45
2023-04-18T15:48:21.264Z,20.55
2023-04-18T15:51:28.375Z,22.67
2023-04-18T15:54:30.836Z,21.86
2023-04-18T15:57:33.362Z,22.92
2023-04-18T16:00:35.919Z,26.75
2023-04-18T16:03:39.872Z,26.71
2023-04-18T16:06:42.973Z,28.74
2023-04-18T16:09:45.545Z,27.49
2023-04-18T16:12:48.282Z,29.54
2023-04-18T16:15:50.879Z,28.46
2023-04-18T16:18:53.410Z,28.53
2023-04-18T16:21:56.901Z,29.02
2023-04-18T16:24:59.430Z,30.58
2023-04-18T16:28:02.004Z,30.89
2023-04-18T16:31:06.143Z,32.08
2023-04-18T16:34:09.981Z,33.56
2023-04-18T16:37:12.438Z,34.09
2023-04-18T16:40:15.316Z,34.46
2023-04-18T16:43:17.890Z,35.55
2023-04-18T16:46:20.432Z,34.82
2023-04-18T16:49:23.754Z,34.81
2023-04-18T16:52:26.296Z,35.77
2023-04-18T16:55:29.018Z,35.10
2023-04-18T16:58:31.553Z,35.53
2023-04-18T17:01:34.326Z,35.49
2023-04-18T17:04:37.091Z,35.82
2023-04-18T17:07:39.698Z,36.47
2023-04-18T17:10:42.596Z,36.81
2023-04-18T17:13:45.700Z,37.22
2023-04-18T17:16:49.563Z,37.51
2023-04-18T17:19:53.455Z,37.85
2023-04-18T17:22:57.317Z,38.34
2023-04-18T17:25:59.761Z,38.50
2023-04-18T17:29:04.249Z,39.35
2023-04-18T17:32:07.169Z,40.33
2023-04-18T17:35:10.442Z,40.29
2023-04-18T17:38:13.043Z,41.06
2023-04-18T17:41:17.840Z,41.31
2023-04-18T17:44:20.774Z,41.69
2023-04-18T17:47:25.189Z,42.38
2023-04-18T17:50:28.161Z,42.68
2023-04-18T17:53:32.168Z,43.43
2023-04-18T17:56:35.457Z,43.74
2023-04-18T17:59:38.827Z,44.29
2023-04-18T18:02:44.885Z,44.94
2023-04-18T18:05:49.652Z,45.14
2023-04-18T18:08:52.306Z,46.73
2023-04-18T18:11:56.017Z,47.51
2023-04-18T18:14:59.146Z,48.16
2023-04-18T18:18:02.200Z,47.03
2023-04-18T18:21:05.391Z,47.33
2023-04-18T18:24:08.938Z,47.79
2023-04-18T18:27:11.520Z,48.48
2023-04-18T18:30:14.857Z,47.71
2023-04-18T18:33:17.804Z,48.59
2023-04-18T18:36:20.519Z,47.45
2023-04-18T18:39:23.507Z,47.87
2023-04-18T18:42:27.024Z,46.93
2023-04-18T18:45:30.068Z,46.58
2023-04-18T18:48:37.041Z,45.78
2023-04-18T18:51:41.014Z,45.32
2023-04-18T18:54:45.501Z,46.45
2023-04-18T18:57:48.455Z,46.10
2023-04-18T19:00:51.832Z,47.10
2023-04-18T19:03:54.970Z,47.29
2023-04-18T19:06:58.216Z,47.14
2023-04-18T19:10:01.790Z,46.51
2023-04-18T19:13:04.660Z,45.82
2023-04-18T19:16:07.738Z,45.62
2023-04-18T19:19:10.960Z,45.15
2023-04-18T19:22:13.828Z,45.97
2023-04-18T19:25:17.771Z,45.93
2023-04-18T19:28:22.664Z,46.76
2023-04-18T19:31:26.202Z,46.71
2023-04-18T19:34:29.270Z,46.00
2023-04-18T19:37:32.435Z,46.09
2023-04-18T19:40:35.380Z,46.76
2023-04-18T19:43:39.036Z,47.08
2023-04-18T19:46:41.824Z,46.84
2023-04-18T19:49:44.757Z,46.95
2023-04-18T19:52:48.183Z,47.58
2023-04-18T19:55:51.018Z,47.85
2023-04-18T19:58:54.065Z,48.30
2023-04-18T20:01:59.499Z,48.69
2023-04-18T20:05:06.431Z,47.90
2023-04-18T20:08:10.054Z,47.76
2023-04-18T20:11:14.335Z,47.40
2023-04-18T20:14:18.026Z,47.19
2023-04-18T20:17:21.168Z,46.78
2023-04-18T20:20:23.989Z,46.42
2023-04-18T20:23:26.934Z,47.47
2023-04-18T20:26:29.741Z,46.90
2023-04-18T20:29:32.631Z,46.60
2023-04-18T20:32:35.516Z,46.63
2023-04-18T20:35:38.373Z,46.69
2023-04-18T20:38:41.390Z,46.53
2023-04-18T20:41:46.733Z,46.96
2023-04-18T20:44:49.276Z,47.23
2023-04-18T20:47:52.693Z,46.89
2023-04-18T20:50:55.353Z,47.29
2023-04-18T20:53:57.904Z,47.69
2023-04-18T20:57:00.952Z,48.16
2023-04-18T21:00:06.429Z,48.05
2023-04-18T21:03:09.200Z,48.63
2023-04-18T21:06:12.192Z,49.24
2023-04-18T21:09:15.098Z,49.04
2023-04-18T21:12:17.977Z,49.32
2023-04-18T21:15:20.580Z,49.58
2023-04-18T21:18:23.604Z,49.67
2023-04-18T21:21:26.080Z,49.27
2023-04-18T21:24:28.642Z,49.40
2023-04-18T21:27:31.078Z,49.52
2023-04-18T21:30:34.740Z,49.40
2023-04-18T21:33:37.390Z,50.14
2023-04-18T21:36:40.184Z,49.90
2023-04-18T21:39:42.813Z,50.26
2023-04-18T21:42:46.006Z,49.31
2023-04-18T21:45:49.739Z,49.44
2023-04-18T21:48:52.575Z,49.09
2023-04-18T21:51:55.169Z,48.67
2023-04-18T21:54:59.281Z,48.76
2023-04-18T21:58:01.800Z,48.76
2023-04-18T22:01:04.639Z,48.87
2023-04-18T22:04:07.735Z,48.78
2023-04-18T22:07:11.585Z,48.92
2023-04-18T22:10:14.176Z,49.03
2023-04-18T22:13:19.061Z,49.15
2023-04-18T22:16:24.780Z,48.96
2023-04-18T22:19:29.568Z,48.90
2023-04-18T22:22:32.130Z,48.40
2023-04-18T22:25:34.913Z,48.33
2023-04-18T22:28:37.750Z,48.31
2023-04-18T22:31:40.363Z,48.07
2023-04-18T22:34:43.158Z,48.27
2023-04-18T22:37:45.973Z,48.10
2023-04-18T22:40:48.790Z,48.84
2023-04-18T22:43:51.406Z,48.80
2023-04-18T22:46:56.525Z,48.88
2023-04-18T22:49:58.978Z,48.79
2023-04-18T22:53:01.478Z,48.63
2023-04-18T22:56:04.136Z,47.79
2023-04-18T22:59:06.665Z,48.21
2023-04-18T23:02:10.585Z,48.00
2023-04-18T23:05:15.670Z,48.28
2023-04-18T23:08:20.686Z,48.81
2023-04-18T23:11:23.520Z,48.77
2023-04-18T23:14:26.001Z,48.99
2023-04-18T23:17:28.545Z,50.02
2023-04-18T23:20:31.083Z,49.69
2023-04-18T23:23:33.580Z,50.01
2023-04-18T23:26:36.070Z,49.34
2023-04-18T23:29:39.263Z,49.50
2023-04-18T23:32:42.056Z,49.29
2023-04-18T23:35:44.676Z,49.61
2023-04-18T23:38:47.325Z,49.28
2023-04-18T23:41:50.391Z,49.36
2023-04-18T23:44:52.928Z,49.37
2023-04-18T23:47:55.752Z,49.13
2023-04-18T23:50:58.724Z,49.19
2023-04-18T23:54:01.315Z,49.77
2023-04-18T23:57:03.926Z,49.94
